Time;durP1;ratioP1;P1;durP2;ratioP2;P2;SDS_P1;SDS_P2;PMS_P1;PMS_P2;Temp;Humidity;BMP_temperature;BMP_pressure;BME280_temperature;BME280_humidity;BME280_pressure;Samples;Min_cycle;Max_cycle;Signal;HPM_P1;HPM_P2
2023/12/24 00:01:22;;;;;;;0.00;0.00;;;;;;;13.08;62.74;100836.75;5124354;28;20047;-80
2023/12/24 00:03:48;;;;;;;0.17;0.17;;;;;;;13.05;63.10;100831.56;5127681;28;20045;-82
2023/12/24 00:06:14;;;;;;;0.10;0.10;;;;;;;12.92;63.38;100818.63;5123574;28;20046;-81
2023/12/24 00:08:40;;;;;;;0.10;0.10;;;;;;;13.00;63.37;100814.88;5124713;28;20095;-82
2023/12/24 00:11:07;;;;;;;0.10;0.10;;;;;;;12.75;63.45;100820.91;5123626;28;20266;-80
2023/12/24 00:13:36;;;;;;;0.10;0.10;;;;;;;12.81;63.62;100785.28;5124594;28;20031;-82
2023/12/24 00:16:02;;;;;;;0.10;0.10;;;;;;;12.89;62.86;100770.84;5126803;28;20084;-83
2023/12/24 00:18:29;;;;;;;0.10;0.10;;;;;;;12.87;63.28;100754.09;5134479;28;20027;-81
2023/12/24 00:20:55;;;;;;;0.08;0.08;;;;;;;12.88;63.23;100760.25;5108533;28;20029;-83
2023/12/24 00:23:21;;;;;;;0.10;0.10;;;;;;;12.83;63.95;100752.41;5123657;28;20161;-80
2023/12/24 00:25:47;;;;;;;0.10;0.10;;;;;;;12.94;63.39;100749.44;5135483;27;20042;-82
2023/12/24 00:28:14;;;;;;;0.10;0.10;;;;;;;12.90;63.32;100771.72;5132366;27;20053;-81
2023/12/24 00:30:40;;;;;;;0.35;0.35;;;;;;;13.00;63.39;100753.69;5128286;27;20031;-81
2023/12/24 00:33:06;;;;;;;0.10;0.10;;;;;;;12.80;63.45;100757.84;5127647;27;20086;-81
2023/12/24 00:35:34;;;;;;;0.10;0.10;;;;;;;12.68;64.14;100753.75;5125242;28;20027;-79
2023/12/24 00:38:00;;;;;;;0.17;0.17;;;;;;;12.75;64.07;100776.59;5129134;28;20019;-80
2023/12/24 00:40:26;;;;;;;0.73;0.73;;;;;;;12.83;63.52;100763.06;5125757;28;20433;-79
2023/12/24 00:42:53;;;;;;;0.10;0.10;;;;;;;12.83;63.42;100762.19;5121761;28;20028;-79
2023/12/24 00:45:19;;;;;;;0.88;0.82;;;;;;;12.94;63.11;100738.78;5130365;28;20087;-80
2023/12/24 00:47:45;;;;;;;1.00;1.00;;;;;;;12.74;64.61;100750.06;5131950;28;20024;-80
2023/12/24 00:50:11;;;;;;;3.40;2.25;;;;;;;12.79;64.69;100751.63;5131434;27;20102;-80
2023/12/24 00:52:38;;;;;;;0.10;0.10;;;;;;;12.78;65.47;100738.41;5126066;28;20039;-81
2023/12/24 00:55:05;;;;;;;0.15;0.15;;;;;;;12.44;67.63;100779.28;5122124;28;20111;-82
2023/12/24 00:57:31;;;;;;;1.05;1.05;;;;;;;12.37;67.37;100740.50;5122902;28;20077;-81
2023/12/24 00:59:57;;;;;;;2.50;2.00;;;;;;;12.41;67.83;100739.50;5126342;28;20049;-83
2023/12/24 01:02:23;;;;;;;0.10;0.10;;;;;;;12.29;68.44;100744.25;5132422;28;20034;-83
2023/12/24 01:04:49;;;;;;;0.10;0.10;;;;;;;12.19;68.92;100721.53;5131101;28;20026;-84
2023/12/24 01:07:16;;;;;;;0.00;0.00;;;;;;;12.22;69.41;100713.47;5125655;28;20019;-82
2023/12/24 01:09:43;;;;;;;0.20;0.20;;;;;;;12.25;69.06;100717.81;5128888;28;20020;-83
2023/12/24 01:12:09;;;;;;;0.10;0.10;;;;;;;12.10;70.23;100729.75;5126334;28;20032;-81
2023/12/24 01:14:35;;;;;;;0.10;0.10;;;;;;;11.99;70.79;100730.06;5130418;28;20030;-82
2023/12/24 01:17:02;;;;;;;0.10;0.10;;;;;;;12.02;70.26;100708.72;5124096;28;20094;-82
2023/12/24 01:19:30;;;;;;;0.10;0.10;;;;;;;12.00;70.72;100723.84;5122026;28;20047;-82
2023/12/24 01:21:57;;;;;;;0.10;0.10;;;;;;;12.04;70.75;100751.19;5123396;28;20034;-83
2023/12/24 01:24:23;;;;;;;0.10;0.10;;;;;;;11.98;71.36;100738.94;5116461;28;20049;-84
2023/12/24 01:26:49;;;;;;;0.20;0.20;;;;;;;12.00;72.27;100734.47;5125508;27;20031;-84
2023/12/24 01:29:15;;;;;;;0.10;0.10;;;;;;;12.05;71.71;100729.00;5111894;28;20021;-83
2023/12/24 01:31:42;;;;;;;0.10;0.10;;;;;;;11.94;72.75;100730.16;5115901;28;20032;-82
2023/12/24 01:34:08;;;;;;;0.13;0.13;;;;;;;12.02;72.63;100737.94;5117653;28;20064;-83
2023/12/24 01:36:37;;;;;;;0.10;0.10;;;;;;;11.89;73.13;100740.03;5124109;27;20038;-83
2023/12/24 01:39:04;;;;;;;0.10;0.10;;;;;;;11.93;73.49;100725.75;5116750;27;20105;-82
2023/12/24 01:41:31;;;;;;;0.20;0.20;;;;;;;11.89;74.07;100728.56;5125884;27;20078;-83
2023/12/24 01:43:57;;;;;;;0.20;0.20;;;;;;;11.85;73.65;100730.41;5124035;27;20038;-83
2023/12/24 01:46:24;;;;;;;0.10;0.10;;;;;;;11.98;74.58;100699.13;5121600;27;20032;-83
2023/12/24 01:48:51;;;;;;;0.10;0.10;;;;;;;11.90;74.41;100707.28;5123123;27;20103;-83
2023/12/24 01:51:20;;;;;;;0.10;0.10;;;;;;;12.02;74.29;100694.59;5120965;28;20042;-83
2023/12/24 01:53:49;;;;;;;0.10;0.10;;;;;;;11.92;74.44;100694.81;5122629;27;20034;-83
2023/12/24 01:56:19;;;;;;;0.10;0.10;;;;;;;11.91;75.31;100698.41;5123231;27;20073;-83
2023/12/24 01:58:46;;;;;;;0.10;0.10;;;;;;;11.91;74.85;100687.78;5128248;27;20030;-82
2023/12/24 02:01:12;;;;;;;0.10;0.10;;;;;;;12.09;74.02;100677.56;5123719;27;20058;-81
2023/12/24 02:03:42;;;;;;;0.10;0.10;;;;;;;12.05;74.78;100671.47;5133323;27;20095;-81
2023/12/24 02:06:10;;;;;;;0.10;0.10;;;;;;;12.08;74.86;100683.78;5135386;27;20015;-82
2023/12/24 02:08:37;;;;;;;0.10;0.10;;;;;;;11.96;75.64;100669.06;5130685;27;20073;-83
2023/12/24 02:11:04;;;;;;;0.20;0.20;;;;;;;11.93;75.76;100656.72;5117387;27;20027;-80
2023/12/24 02:13:32;;;;;;;0.63;0.63;;;;;;;11.94;76.03;100671.75;5119396;27;20027;-80
2023/12/24 02:16:02;;;;;;;0.10;0.10;;;;;;;11.91;76.42;100666.53;5117182;27;20020;-81
2023/12/24 02:18:28;;;;;;;0.10;0.10;;;;;;;12.05;76.09;100655.53;5131812;27;20041;-84
2023/12/24 02:21:04;;;;;;;0.10;0.10;;;;;;;12.11;75.80;100662.44;5127101;27;20062;-83
2023/12/24 02:23:30;;;;;;;0.10;0.10;;;;;;;12.07;75.67;100651.03;5127337;28;20028;-82
2023/12/24 02:26:03;;;;;;;0.15;0.15;;;;;;;12.13;75.53;100644.69;5122290;27;20035;-85
2023/12/24 02:28:37;;;;;;;0.10;0.10;;;;;;;12.04;76.39;100650.28;5123373;28;20020;-85
2023/12/24 02:31:07;;;;;;;0.10;0.10;;;;;;;12.07;75.78;100666.13;5129322;27;20225;-83
2023/12/24 02:33:38;;;;;;;0.10;0.10;;;;;;;11.98;76.46;100646.88;5138450;27;20024;-84
2023/12/24 02:36:10;;;;;;;0.10;0.10;;;;;;;12.03;76.69;100653.84;5125785;27;20070;-82
2023/12/24 02:38:36;;;;;;;0.10;0.10;;;;;;;12.15;76.64;100645.53;5108120;28;20051;-83
2023/12/24 02:41:03;;;;;;;0.30;0.30;;;;;;;11.97;76.76;100655.78;5129670;28;20066;-83
2023/12/24 02:43:30;;;;;;;0.10;0.10;;;;;;;11.87;77.49;100648.94;5129643;28;20015;-83
2023/12/24 02:45:59;;;;;;;0.10;0.10;;;;;;;12.00;77.41;100632.69;5134025;27;20099;-82
2023/12/24 02:48:26;;;;;;;0.00;0.00;;;;;;;12.00;77.53;100622.94;5124690;27;20031;-82
2023/12/24 02:50:52;;;;;;;0.10;0.10;;;;;;;12.18;76.52;100624.16;5130399;27;20017;-83
2023/12/24 02:53:18;;;;;;;0.10;0.10;;;;;;;12.12;77.61;100622.59;5118725;28;20043;-85
2023/12/24 02:55:45;;;;;;;0.10;0.10;;;;;;;12.16;76.82;100611.84;5129271;27;20027;-84
2023/12/24 02:58:12;;;;;;;0.10;0.10;;;;;;;12.16;77.43;100611.84;5123121;28;20024;-84
2023/12/24 03:00:38;;;;;;;0.10;0.10;;;;;;;12.24;76.74;100604.53;5140496;27;20011;-82
2023/12/24 03:03:05;;;;;;;0.10;0.10;;;;;;;12.05;77.84;100612.16;5127327;28;20043;-81
2023/12/24 03:05:31;;;;;;;0.10;0.10;;;;;;;11.94;79.26;100580.63;5126524;27;20027;-80
2023/12/24 03:07:57;;;;;;;0.10;0.10;;;;;;;12.14;78.21;100599.47;5127816;28;20027;-80
2023/12/24 03:10:23;;;;;;;0.10;0.10;;;;;;;12.23;78.21;100579.75;5127740;28;20038;-81
2023/12/24 03:12:49;;;;;;;0.10;0.10;;;;;;;12.23;77.79;100610.75;5128839;28;20038;-81
2023/12/24 03:15:15;;;;;;;0.10;0.10;;;;;;;12.32;77.54;100580.38;5129516;27;20037;-82
2023/12/24 03:17:42;;;;;;;0.10;0.10;;;;;;;12.30;78.23;100580.44;5125692;28;20028;-82
2023/12/24 03:20:08;;;;;;;0.10;0.10;;;;;;;12.26;78.12;100582.31;5129605;28;20054;-82
2023/12/24 03:22:35;;;;;;;0.10;0.10;;;;;;;12.36;77.57;100582.00;5129800;28;20035;-83
2023/12/24 03:25:01;;;;;;;0.10;0.10;;;;;;;12.17;78.68;100581.72;5128192;28;20020;-82
2023/12/24 03:27:27;;;;;;;0.10;0.10;;;;;;;12.37;78.03;100570.47;5132606;28;20024;-83
2023/12/24 03:29:54;;;;;;;0.10;0.10;;;;;;;12.40;77.98;100581.00;5126307;27;20034;-83
2023/12/24 03:32:21;;;;;;;0.10;0.10;;;;;;;12.33;78.54;100547.59;5128221;28;20024;-83
2023/12/24 03:34:47;;;;;;;0.10;0.10;;;;;;;12.37;78.09;100557.19;5122722;28;20032;-83
2023/12/24 03:37:13;;;;;;;0.10;0.10;;;;;;;12.43;78.34;100562.31;5115982;28;20026;-81
2023/12/24 03:39:39;;;;;;;0.32;0.32;;;;;;;12.43;78.31;100575.59;5129660;28;20032;-80
2023/12/24 03:42:06;;;;;;;0.10;0.10;;;;;;;12.38;78.20;100566.91;5125788;28;20047;-80
2023/12/24 03:44:32;;;;;;;0.10;0.10;;;;;;;12.25;79.32;100569.94;5122261;28;20030;-83
2023/12/24 03:46:58;;;;;;;0.10;0.10;;;;;;;12.47;78.07;100561.28;5127939;28;20035;-79
2023/12/24 03:49:24;;;;;;;0.10;0.10;;;;;;;12.43;78.40;100551.69;5127809;28;20024;-79
2023/12/24 03:51:50;;;;;;;0.10;0.10;;;;;;;12.55;77.82;100567.22;5132235;28;20057;-79
2023/12/24 03:54:21;;;;;;;0.10;0.10;;;;;;;12.47;78.40;100548.00;5126771;28;20451;-79
2023/12/24 03:56:48;;;;;;;0.10;0.10;;;;;;;12.47;78.25;100558.63;5119879;28;20035;-80
2023/12/24 03:59:16;;;;;;;0.10;0.10;;;;;;;12.30;78.64;100554.72;5116413;28;20122;-79
2023/12/24 04:01:43;;;;;;;0.05;0.05;;;;;;;12.45;78.23;100568.44;5121642;27;20081;-78
2023/12/24 04:04:09;;;;;;;0.10;0.10;;;;;;;12.49;78.89;100562.09;5119285;28;20027;-79
2023/12/24 04:06:35;;;;;;;0.10;0.10;;;;;;;12.47;78.10;100563.94;5123934;27;20019;-78
2023/12/24 04:09:01;;;;;;;0.15;0.15;;;;;;;12.52;78.76;100555.81;5121884;27;20371;-79
2023/12/24 04:11:28;;;;;;;0.10;0.10;;;;;;;12.50;78.38;100566.50;5124531;28;20073;-78
2023/12/24 04:13:54;;;;;;;0.90;0.90;;;;;;;12.58;78.67;100569.78;5127100;27;20059;-79
2023/12/24 04:16:20;;;;;;;0.30;0.30;;;;;;;12.54;78.60;100565.47;5131454;27;20405;-79
2023/12/24 04:18:46;;;;;;;0.10;0.10;;;;;;;12.46;79.41;100543.59;5125978;27;20371;-79
2023/12/24 04:21:13;;;;;;;0.10;0.10;;;;;;;12.56;78.53;100542.41;5119281;27;20115;-80
2023/12/24 04:23:39;;;;;;;0.10;0.10;;;;;;;12.48;78.87;100555.06;5124734;27;20492;-79
2023/12/24 04:26:05;;;;;;;0.10;0.10;;;;;;;12.52;79.04;100555.81;5131524;27;20032;-80
2023/12/24 04:28:32;;;;;;;0.10;0.10;;;;;;;12.43;79.67;100552.53;5135120;27;20040;-79
2023/12/24 04:30:58;;;;;;;0.10;0.10;;;;;;;12.47;79.40;100542.69;5123209;28;21149;-81
2023/12/24 04:33:25;;;;;;;0.10;0.10;;;;;;;12.64;79.03;100549.25;5125454;27;20095;-81
2023/12/24 04:35:51;;;;;;;0.98;0.98;;;;;;;12.52;79.68;100540.72;5128036;27;20035;-81
2023/12/24 04:38:17;;;;;;;0.10;0.10;;;;;;;12.53;79.56;100554.91;5135058;27;20042;-80
2023/12/24 04:40:43;;;;;;;0.10;0.10;;;;;;;12.53;79.79;100547.78;5129531;28;20598;-79
2023/12/24 04:43:09;;;;;;;0.10;0.10;;;;;;;12.65;79.04;100537.66;5136332;27;20053;-79
2023/12/24 04:45:35;;;;;;;0.10;0.10;;;;;;;12.52;79.58;100546.06;5127062;27;20035;-79
2023/12/24 04:48:03;;;;;;;0.10;0.10;;;;;;;12.59;79.90;100534.31;5123953;28;20028;-79
2023/12/24 04:50:29;;;;;;;0.10;0.10;;;;;;;12.67;79.01;100543.81;5123855;28;20019;-79
2023/12/24 04:52:56;;;;;;;0.13;0.13;;;;;;;12.72;79.40;100539.22;5125621;27;20111;-80
2023/12/24 04:55:22;;;;;;;0.30;0.30;;;;;;;12.64;79.64;100535.97;5131573;27;20034;-78
2023/12/24 04:57:48;;;;;;;0.10;0.10;;;;;;;12.65;79.49;100535.00;5126119;27;20057;-80
2023/12/24 05:00:14;;;;;;;0.10;0.10;;;;;;;12.70;79.17;100528.63;5129331;27;20046;-79
2023/12/24 05:02:40;;;;;;;0.10;0.10;;;;;;;12.67;79.70;100530.53;5135410;27;20036;-80
2023/12/24 05:05:08;;;;;;;0.10;0.10;;;;;;;12.73;79.29;100525.00;5127233;27;20065;-79
2023/12/24 05:07:34;;;;;;;0.10;0.10;;;;;;;12.73;78.87;100523.19;5129928;27;20039;-78
2023/12/24 05:10:01;;;;;;;0.10;0.10;;;;;;;12.76;79.43;100524.88;5137041;27;20031;-80
2023/12/24 05:12:27;;;;;;;2.67;2.45;;;;;;;12.78;79.59;100531.03;5132555;27;20024;-80
2023/12/24 05:14:53;;;;;;;1.13;1.13;;;;;;;12.66;80.01;100534.09;5131988;28;20110;-80
2023/12/24 05:17:20;;;;;;;0.10;0.10;;;;;;;12.82;79.49;100532.66;5123060;27;20108;-80
2023/12/24 05:19:46;;;;;;;0.10;0.10;;;;;;;12.71;79.96;100524.19;5130035;28;20035;-78
2023/12/24 05:22:12;;;;;;;0.20;0.20;;;;;;;12.70;79.77;100520.66;5137509;28;20045;-79
2023/12/24 05:24:38;;;;;;;0.10;0.10;;;;;;;12.68;80.41;100516.31;5132625;27;20023;-80
2023/12/24 05:27:04;;;;;;;0.00;0.00;;;;;;;12.88;79.29;100512.97;5130768;27;20150;-79
2023/12/24 05:29:31;;;;;;;0.95;0.95;;;;;;;12.85;79.52;100519.25;5135398;27;20056;-79
2023/12/24 05:31:58;;;;;;;0.45;0.45;;;;;;;12.86;79.25;100526.31;5136021;27;20023;-81
2023/12/24 05:34:24;;;;;;;0.32;0.32;;;;;;;12.88;79.56;100516.47;5136211;27;20031;-80
2023/12/24 05:36:50;;;;;;;0.10;0.10;;;;;;;12.91;78.99;100521.72;5128796;28;20043;-79
2023/12/24 05:39:16;;;;;;;0.10;0.10;;;;;;;12.91;79.35;100504.88;5128825;27;20586;-81
2023/12/24 05:41:44;;;;;;;0.10;0.10;;;;;;;12.82;80.25;100508.72;5134586;27;20027;-80
2023/12/24 05:44:11;;;;;;;0.10;0.10;;;;;;;12.80;80.10;100521.22;5125039;27;20053;-80
2023/12/24 05:46:37;;;;;;;1.38;1.38;;;;;;;12.85;79.79;100503.31;5129782;28;20035;-81
2023/12/24 05:49:03;;;;;;;0.10;0.10;;;;;;;12.94;79.26;100513.59;5134589;27;20481;-80
2023/12/24 05:51:29;;;;;;;0.90;0.90;;;;;;;12.86;79.59;100510.38;5135720;27;20103;-79
2023/12/24 05:53:55;;;;;;;0.95;0.95;;;;;;;12.97;79.42;100509.13;5136961;27;20031;-79
2023/12/24 05:56:22;;;;;;;2.40;2.28;;;;;;;13.08;78.92;100513.16;5129704;27;20024;-78
2023/12/24 05:58:48;;;;;;;0.10;0.10;;;;;;;12.98;79.44;100506.41;5134140;27;20027;-80
2023/12/24 06:01:14;;;;;;;0.30;0.30;;;;;;;12.97;79.55;100498.47;5125499;27;20023;-80
2023/12/24 06:03:41;;;;;;;0.10;0.10;;;;;;;13.07;79.26;100500.78;5133755;27;20550;-80
2023/12/24 06:06:07;;;;;;;0.10;0.10;;;;;;;13.00;79.05;100485.09;5127555;27;20030;-79
2023/12/24 06:08:36;;;;;;;0.10;0.10;;;;;;;13.04;79.04;100494.69;5129312;28;20043;-80
2023/12/24 06:11:02;;;;;;;0.10;0.10;;;;;;;13.08;78.60;100497.19;5131397;27;20032;-79
2023/12/24 06:13:29;;;;;;;0.45;0.45;;;;;;;13.08;79.14;100480.34;5129163;28;20020;-80
2023/12/24 06:15:55;;;;;;;3.00;0.63;;;;;;;13.04;79.41;100489.38;5134618;27;20039;-79
2023/12/24 06:18:21;;;;;;;0.10;0.10;;;;;;;12.97;79.25;100495.81;5131448;28;20027;-80
2023/12/24 06:20:47;;;;;;;0.43;0.43;;;;;;;12.97;79.73;100493.16;5131020;27;20028;-80
2023/12/24 06:23:13;;;;;;;0.10;0.10;;;;;;;13.08;78.95;100485.66;5130673;28;20035;-80
2023/12/24 06:25:40;;;;;;;0.20;0.20;;;;;;;13.12;78.82;100500.59;5131562;27;20023;-80
2023/12/24 06:28:06;;;;;;;0.10;0.10;;;;;;;13.08;78.71;100490.97;5131211;27;20035;-80
2023/12/24 06:30:32;;;;;;;0.50;0.50;;;;;;;13.01;79.59;100497.44;5135462;27;20111;-80
2023/12/24 06:32:58;;;;;;;0.10;0.10;;;;;;;12.99;79.16;100509.94;5131696;27;20053;-81
2023/12/24 06:35:25;;;;;;;0.10;0.10;;;;;;;13.16;78.65;100510.22;5129049;27;20046;-81
2023/12/24 06:37:51;;;;;;;0.10;0.10;;;;;;;13.14;78.72;100496.09;5126145;27;20533;-81
2023/12/24 06:40:17;;;;;;;0.20;0.20;;;;;;;13.10;78.94;100499.78;5130346;27;20080;-79
2023/12/24 06:42:44;;;;;;;0.10;0.10;;;;;;;13.17;78.76;100496.00;5116797;28;20035;-78
2023/12/24 06:45:10;;;;;;;0.10;0.10;;;;;;;13.06;78.71;100514.97;5116171;28;20106;-77
2023/12/24 06:47:36;;;;;;;1.20;1.20;;;;;;;13.11;78.52;100490.88;5123852;27;20489;-79
2023/12/24 06:50:02;;;;;;;0.10;0.10;;;;;;;13.17;78.60;100477.38;5123752;27;20107;-79
2023/12/24 06:52:29;;;;;;;0.10;0.10;;;;;;;13.24;77.76;100484.16;5119174;27;20042;-80
2023/12/24 06:54:55;;;;;;;0.73;0.73;;;;;;;13.17;78.23;100485.34;5119305;27;20539;-79
2023/12/24 06:57:21;;;;;;;0.10;0.10;;;;;;;13.22;78.41;100494.03;5122469;27;20023;-79
2023/12/24 06:59:47;;;;;;;1.05;0.98;;;;;;;13.23;78.47;100477.13;5121687;27;20032;-80
2023/12/24 07:02:13;;;;;;;0.63;0.60;;;;;;;13.23;78.07;100486.91;5118509;27;20043;-78
2023/12/24 07:04:40;;;;;;;0.55;0.55;;;;;;;13.30;78.03;100495.53;5124600;27;20114;-78
2023/12/24 07:07:06;;;;;;;0.17;0.17;;;;;;;13.33;77.79;100484.78;5131537;28;20060;-80
2023/12/24 07:09:32;;;;;;;0.10;0.10;;;;;;;13.31;77.49;100489.28;5122241;28;20033;-81
2023/12/24 07:11:59;;;;;;;0.10;0.10;;;;;;;13.16;78.07;100488.94;5122681;28;20028;-81
2023/12/24 07:14:26;;;;;;;0.10;0.10;;;;;;;13.33;77.77;100474.13;5120529;28;20027;-81
2023/12/24 07:16:52;;;;;;;0.40;0.40;;;;;;;13.35;77.40;100472.28;5120729;28;20118;-81
2023/12/24 07:19:18;;;;;;;0.10;0.10;;;;;;;13.38;77.32;100488.16;5122507;28;20091;-79
2023/12/24 07:21:45;;;;;;;0.10;0.10;;;;;;;13.41;77.18;100488.06;5122373;28;20132;-81
2023/12/24 07:24:12;;;;;;;0.10;0.10;;;;;;;13.31;77.86;100473.31;5122916;28;20022;-80
2023/12/24 07:26:38;;;;;;;0.10;0.10;;;;;;;13.38;77.74;100466.88;5124630;28;20031;-79
2023/12/24 07:29:04;;;;;;;1.00;1.00;;;;;;;13.47;77.10;100462.97;5118915;28;20027;-81
2023/12/24 07:31:30;;;;;;;0.30;0.30;;;;;;;13.31;77.62;100481.28;5120004;28;20027;-80
2023/12/24 07:33:56;;;;;;;0.20;0.20;;;;;;;13.39;77.45;100473.94;5121547;28;20028;-81
2023/12/24 07:36:23;;;;;;;1.27;1.27;;;;;;;13.44;77.57;100469.28;5126146;27;20654;-83
2023/12/24 07:38:49;;;;;;;0.10;0.10;;;;;;;13.32;77.88;100472.38;5128468;27;20032;-81
2023/12/24 07:41:16;;;;;;;1.30;1.30;;;;;;;13.40;77.95;100473.88;5135783;27;20091;-82
2023/12/24 07:43:43;;;;;;;1.40;1.23;;;;;;;13.41;77.89;100466.78;5131518;27;20028;-81
2023/12/24 07:46:09;;;;;;;0.10;0.10;;;;;;;13.40;77.47;100470.34;5129774;27;20016;-79
2023/12/24 07:48:35;;;;;;;0.10;0.10;;;;;;;13.29;78.00;100477.84;5133073;27;20035;-80
2023/12/24 07:51:02;;;;;;;0.10;0.10;;;;;;;13.23;78.60;100490.44;5127677;27;20028;-80
2023/12/24 07:53:28;;;;;;;0.10;0.10;;;;;;;13.24;79.17;100470.00;5128335;28;20039;-80
2023/12/24 07:55:55;;;;;;;0.10;0.10;;;;;;;13.36;77.96;100477.53;5132948;27;20054;-79
2023/12/24 07:58:21;;;;;;;0.10;0.10;;;;;;;13.25;78.74;100472.59;5129418;27;20023;-84
2023/12/24 08:00:47;;;;;;;0.25;0.25;;;;;;;13.37;78.90;100458.03;5129430;27;20034;-82
2023/12/24 08:03:13;;;;;;;0.30;0.30;;;;;;;13.38;78.54;100461.53;5128808;27;20019;-83
2023/12/24 08:05:40;;;;;;;0.10;0.10;;;;;;;13.35;78.92;100454.50;5126977;27;20035;-82
2023/12/24 08:08:06;;;;;;;0.10;0.10;;;;;;;13.31;79.09;100460.00;5132204;27;20032;-83
2023/12/24 08:10:32;;;;;;;0.10;0.10;;;;;;;13.35;79.08;100464.31;5134247;27;20031;-83
2023/12/24 08:12:58;;;;;;;0.43;0.28;;;;;;;13.25;79.25;100466.44;5135687;27;20039;-82
2023/12/24 08:15:24;;;;;;;0.10;0.10;;;;;;;13.41;78.88;100466.78;5139381;27;20042;-82
2023/12/24 08:17:51;;;;;;;0.17;0.17;;;;;;;13.32;79.05;100464.41;5136720;27;20235;-82
2023/12/24 08:20:21;;;;;;;0.20;0.20;;;;;;;13.31;79.40;100470.63;5134464;27;20035;-84
2023/12/24 08:22:48;;;;;;;0.10;0.10;;;;;;;13.32;79.43;100470.59;5138057;27;20032;-83
2023/12/24 08:25:14;;;;;;;0.10;0.10;;;;;;;13.32;79.79;100483.91;5134719;27;20075;-84
2023/12/24 08:27:41;;;;;;;0.10;0.10;;;;;;;13.34;79.77;100476.72;5126750;27;20067;-83
2023/12/24 08:30:08;;;;;;;0.10;0.10;;;;;;;13.37;79.76;100476.66;5132157;27;20030;-83
2023/12/24 08:32:34;;;;;;;0.60;0.60;;;;;;;13.40;79.78;100483.66;5125195;27;20115;-83
2023/12/24 08:35:01;;;;;;;0.10;0.10;;;;;;;13.38;79.89;100501.47;5124929;27;20050;-81
2023/12/24 08:37:27;;;;;;;0.10;0.10;;;;;;;13.41;79.56;100488.06;5121635;28;20019;-83
2023/12/24 08:39:53;;;;;;;9.43;1.00;;;;;;;13.47;79.21;100493.16;5126133;28;20106;-82
2023/12/24 08:42:19;;;;;;;0.28;0.28;;;;;;;13.51;79.32;100477.94;5127463;28;20065;-82
2023/12/24 08:44:45;;;;;;;0.10;0.10;;;;;;;13.36;79.56;100479.34;5123767;28;20027;-82
2023/12/24 08:47:12;;;;;;;0.10;0.10;;;;;;;13.53;79.18;100476.94;5126325;27;20521;-81
2023/12/24 08:49:38;;;;;;;0.10;0.10;;;;;;;13.39;79.76;100479.25;5128541;28;20482;-81
2023/12/24 08:52:04;;;;;;;0.17;0.17;;;;;;;13.58;79.05;100466.97;5131454;28;20095;-82
2023/12/24 08:54:30;;;;;;;0.10;0.10;;;;;;;13.42;79.63;100473.78;5125509;28;20016;-82
2023/12/24 08:56:57;;;;;;;0.10;0.10;;;;;;;13.51;79.17;100478.78;5125008;28;20206;-82
2023/12/24 08:59:23;;;;;;;0.10;0.10;;;;;;;13.54;79.19;100470.66;5121692;28;20083;-85
2023/12/24 09:01:49;;;;;;;0.10;0.10;;;;;;;13.49;79.25;100485.09;5123525;28;20035;-79
2023/12/24 09:04:16;;;;;;;1.35;0.65;;;;;;;13.50;79.29;100482.38;5131573;28;20039;-80
2023/12/24 09:06:43;;;;;;;1.45;1.38;;;;;;;13.53;79.37;100460.97;5130394;28;20020;-82
2023/12/24 09:09:09;;;;;;;0.20;0.20;;;;;;;13.57;78.99;100451.94;5131072;27;20128;-84
2023/12/24 09:11:36;;;;;;;0.10;0.10;;;;;;;13.53;79.54;100463.63;5121612;27;20119;-83
2023/12/24 09:14:02;;;;;;;0.10;0.10;;;;;;;13.59;78.97;100458.06;5128002;27;20035;-84
2023/12/24 09:16:29;;;;;;;1.55;0.47;;;;;;;13.51;79.58;100464.63;5117090;27;20057;-81
2023/12/24 09:18:55;;;;;;;0.10;0.10;;;;;;;13.42;79.82;100458.72;5122378;28;20053;-83
2023/12/24 09:21:21;;;;;;;1.10;1.10;;;;;;;13.58;79.31;100452.78;5116484;27;20032;-83
2023/12/24 09:23:47;;;;;;;2.40;0.85;;;;;;;13.52;79.26;100455.69;5114295;28;20455;-82
2023/12/24 09:26:13;;;;;;;0.10;0.10;;;;;;;13.65;79.06;100448.13;5113553;28;20024;-82
2023/12/24 09:28:40;;;;;;;0.10;0.10;;;;;;;13.68;78.73;100440.88;5113824;28;20119;-83
2023/12/24 09:31:09;;;;;;;0.05;0.05;;;;;;;13.75;78.44;100438.81;5113073;28;20083;-82
2023/12/24 09:33:36;;;;;;;0.10;0.10;;;;;;;13.72;78.54;100444.25;5117835;28;20035;-84
2023/12/24 09:36:07;;;;;;;0.13;0.13;;;;;;;13.75;78.56;100417.53;5100323;28;20028;-82
2023/12/24 09:38:33;;;;;;;12.82;0.98;;;;;;;13.71;78.27;100430.09;5122773;28;20060;-83
2023/12/24 09:41:00;;;;;;;0.20;0.20;;;;;;;13.76;78.10;100429.91;5124938;28;20032;-82
2023/12/24 09:43:30;;;;;;;0.10;0.10;;;;;;;13.79;78.15;100428.94;5124294;28;20516;-84
2023/12/24 09:45:59;;;;;;;0.10;0.10;;;;;;;13.83;77.87;100426.09;5129326;28;20023;-85
2023/12/24 09:48:25;;;;;;;1.33;1.27;;;;;;;13.81;77.61;100435.91;5127390;28;20035;-83
2023/12/24 09:50:57;;;;;;;1.27;1.27;;;;;;;13.73;78.00;100470.84;5128475;28;20043;-81
2023/12/24 09:53:23;;;;;;;0.10;0.10;;;;;;;13.94;77.52;100443.41;5130216;28;20028;-83
2023/12/24 09:55:49;;;;;;;0.73;0.73;;;;;;;13.88;77.05;100450.72;5125900;28;20099;-81
2023/12/24 09:58:17;;;;;;;0.10;0.10;;;;;;;13.94;77.13;100451.41;5125453;28;20030;-82
2023/12/24 10:00:43;;;;;;;11.20;1.75;;;;;;;13.99;76.74;100457.41;5130412;28;20027;-83
2023/12/24 10:03:10;;;;;;;1.02;0.52;;;;;;;13.82;77.26;100474.94;5118992;28;20031;-81
2023/12/24 10:05:59;;;;;;;0.10;0.10;;;;;;;14.07;76.75;100474.81;5119643;28;20042;-83
2023/12/24 10:08:25;;;;;;;0.10;0.10;;;;;;;13.84;77.25;100478.38;5118156;28;20028;-82
2023/12/24 10:10:52;;;;;;;0.10;0.10;;;;;;;13.90;77.14;100470.16;5125767;28;20035;-83
2023/12/24 10:13:22;;;;;;;0.10;0.10;;;;;;;13.81;77.17;100497.16;5126376;28;20273;-83
2023/12/24 10:16:01;;;;;;;0.57;0.55;;;;;;;14.02;76.65;100473.28;5125458;28;20031;-82
2023/12/24 10:18:28;;;;;;;0.68;0.55;;;;;;;14.03;76.59;100475.88;5121809;28;20028;-82
2023/12/24 10:21:05;;;;;;;5.18;2.58;;;;;;;14.11;76.33;100459.56;5122947;28;20040;-82
2023/12/24 10:23:32;;;;;;;0.20;0.20;;;;;;;13.97;76.73;100461.91;5128726;28;20027;-83
2023/12/24 10:26:02;;;;;;;0.10;0.10;;;;;;;14.11;76.15;100445.41;5130745;28;20024;-83
2023/12/24 10:28:29;;;;;;;0.15;0.15;;;;;;;13.98;76.68;100467.22;5123589;28;20024;-82
2023/12/24 10:31:10;;;;;;;0.43;0.43;;;;;;;14.06;76.22;100445.59;5126052;28;20505;-83
2023/12/24 10:33:39;;;;;;;0.75;0.75;;;;;;;14.08;76.37;100443.69;5123092;28;20090;-82
2023/12/24 10:36:06;;;;;;;0.10;0.10;;;;;;;13.94;77.11;100433.63;5120133;28;20032;-81
2023/12/24 10:38:34;;;;;;;0.40;0.40;;;;;;;13.86;77.19;100430.41;5125236;28;20048;-80
2023/12/24 10:41:01;;;;;;;0.22;0.22;;;;;;;13.97;77.29;100422.84;5114382;28;20107;-81
2023/12/24 10:43:28;;;;;;;0.10;0.10;;;;;;;13.87;77.34;100451.66;5116291;28;20024;-81
2023/12/24 10:45:56;;;;;;;0.10;0.10;;;;;;;13.77;78.05;100444.09;5123549;28;20028;-81
2023/12/24 10:48:23;;;;;;;0.38;0.38;;;;;;;13.84;77.70;100443.78;5124296;28;20035;-79
2023/12/24 10:50:50;;;;;;;1.60;1.50;;;;;;;13.84;78.01;100432.25;5119734;28;20046;-81
2023/12/24 10:53:16;;;;;;;0.95;0.95;;;;;;;13.78;78.41;100444.00;5126034;28;20037;-81
2023/12/24 10:55:54;;;;;;;0.13;0.13;;;;;;;13.84;78.77;100429.59;5118517;28;20028;-79
2023/12/24 11:01:09;;;;;;;0.10;0.10;;;;;;;13.89;78.21;100399.22;5092608;27;20404;-80
2023/12/24 11:03:52;;;;;;;0.00;0.00;;;;;;;13.88;78.21;100389.47;5069394;28;20320;-81
2023/12/24 11:11:55;;;;;;;1.75;1.65;;;;;;;13.83;78.68;100404.78;5059075;28;20398;-80
2023/12/24 11:14:45;;;;;;;0.10;0.10;;;;;;;13.90;78.41;100411.56;5020978;28;20046;-80
2023/12/24 11:31:03;;;;;;;0.10;0.10;;;;;;;13.85;79.14;100392.25;5108605;27;20390;-83
2023/12/24 11:36:11;;;;;;;0.10;0.10;;;;;;;13.85;79.00;100408.22;5113238;27;20356;-82
2023/12/24 11:41:22;;;;;;;0.10;0.10;;;;;;;13.73;79.25;100387.41;5190618;27;20141;-81
2023/12/24 11:46:35;;;;;;;11.60;1.75;;;;;;;14.02;78.56;100377.41;5073925;28;20421;-83
2023/12/24 11:49:06;;;;;;;0.10;0.10;;;;;;;13.99;78.70;100361.53;5070220;28;20028;-81
2023/12/24 11:51:32;;;;;;;0.10;0.10;;;;;;;13.97;78.99;100368.69;5068334;28;20081;-80
2023/12/24 11:54:01;;;;;;;1.83;1.73;;;;;;;14.09;78.34;100373.53;5065398;28;20036;-82